createdAt,value
2023-05-10T00:02:55.432Z,96.03
2023-05-10T00:03:57.178Z,96.15
2023-05-10T00:04:58.835Z,95.51
2023-05-10T00:06:00.466Z,95.76
2023-05-10T00:07:02.512Z,95.72
2023-05-10T00:08:04.233Z,95.52
2023-05-10T00:09:05.813Z,95.83
2023-05-10T00:10:07.867Z,95.79
2023-05-10T00:11:09.497Z,96.19
2023-05-10T00:12:11.143Z,96.33
2023-05-10T00:13:12.885Z,95.35
2023-05-10T00:14:14.466Z,95.60
2023-05-10T00:15:16.142Z,96.05
2023-05-10T00:16:17.723Z,95.71
2023-05-10T00:17:19.433Z,95.59
2023-05-10T00:18:21.362Z,95.67
2023-05-10T00:19:23.057Z,95.77
2023-05-10T00:20:24.923Z,95.53
2023-05-10T00:21:26.940Z,95.09
2023-05-10T00:22:28.637Z,95.83
2023-05-10T00:23:30.451Z,95.44
2023-05-10T00:24:32.185Z,94.51
2023-05-10T00:25:33.913Z,94.67
2023-05-10T00:26:35.784Z,94.99
2023-05-10T00:27:37.549Z,94.30
2023-05-10T00:28:39.276Z,94.28
2023-05-10T00:29:40.974Z,93.78
2023-05-10T00:30:42.656Z,93.45
2023-05-10T00:31:44.390Z,94.41
2023-05-10T00:32:46.336Z,94.04
2023-05-10T00:33:48.126Z,93.72
2023-05-10T00:34:49.804Z,93.44
2023-05-10T00:35:51.768Z,93.16
2023-05-10T00:36:53.537Z,93.36
2023-05-10T00:37:55.210Z,93.38
2023-05-10T00:38:57.031Z,92.65
2023-05-10T00:39:58.749Z,92.54
2023-05-10T00:41:00.697Z,92.58
2023-05-10T00:42:02.745Z,92.42
2023-05-10T00:43:04.545Z,92.60
2023-05-10T00:44:06.602Z,91.84
2023-05-10T00:45:09.126Z,92.50
2023-05-10T00:46:10.993Z,92.42
2023-05-10T00:47:12.928Z,92.10
2023-05-10T00:48:14.726Z,91.91
2023-05-10T00:49:17.702Z,91.75
2023-05-10T00:50:19.561Z,91.85
2023-05-10T00:51:21.819Z,91.02
2023-05-10T00:52:24.799Z,91.15
2023-05-10T00:53:26.727Z,91.41
2023-05-10T00:54:28.593Z,90.79
2023-05-10T00:55:31.131Z,91.28
2023-05-10T00:56:32.889Z,91.38
2023-05-10T00:57:34.825Z,91.24
2023-05-10T00:58:36.792Z,91.78
2023-05-10T00:59:38.762Z,91.37
2023-05-10T01:00:43.798Z,91.25
2023-05-10T01:01:46.590Z,91.22
2023-05-10T01:02:48.976Z,91.84
2023-05-10T01:03:52.190Z,92.03
2023-05-10T01:04:53.935Z,91.95
2023-05-10T01:05:56.337Z,91.73
2023-05-10T01:06:58.280Z,91.96
2023-05-10T01:07:59.989Z,91.87
2023-05-10T01:09:01.700Z,92.00
2023-05-10T01:10:03.536Z,92.33
2023-05-10T01:11:05.360Z,92.29
2023-05-10T01:12:08.459Z,92.02
2023-05-10T01:13:11.029Z,92.59
2023-05-10T01:14:12.921Z,92.61
2023-05-10T01:15:16.532Z,92.51
2023-05-10T01:16:18.496Z,92.25
2023-05-10T01:17:21.616Z,92.69
2023-05-10T01:18:23.817Z,92.58
2023-05-10T01:19:28.303Z,92.35
2023-05-10T01:20:49.009Z,92.64
2023-05-10T01:22:12.418Z,92.73
2023-05-10T01:24:10.698Z,93.31
2023-05-10T01:25:42.870Z,93.08
2023-05-10T01:27:04.923Z,93.27
2023-05-10T01:28:22.160Z,93.34
2023-05-10T01:29:32.935Z,93.41
2023-05-10T01:30:57.401Z,93.16
2023-05-10T01:32:04.794Z,93.08
2023-05-10T01:33:25.860Z,93.25
2023-05-10T01:34:51.561Z,93.17
2023-05-10T01:36:02.375Z,93.58
2023-05-10T01:37:12.028Z,93.55
2023-05-10T01:38:19.319Z,93.82
2023-05-10T01:39:34.018Z,93.84
2023-05-10T01:40:41.140Z,94.12
2023-05-10T01:41:48.618Z,94.40
2023-05-10T01:43:00.391Z,94.28
2023-05-10T01:44:15.094Z,94.99
2023-05-10T01:45:38.114Z,94.54
2023-05-10T01:46:41.295Z,94.50
2023-05-10T01:48:00.397Z,94.82
2023-05-10T01:49:05.151Z,94.39
2023-05-10T01:50:16.286Z,94.59
2023-05-10T01:51:21.523Z,94.39
2023-05-10T01:52:42.089Z,94.44
2023-05-10T01:53:45.814Z,94.41
2023-05-10T01:55:10.218Z,94.37
2023-05-10T01:56:13.349Z,93.92
2023-05-10T01:57:17.926Z,94.43
2023-05-10T01:58:26.282Z,94.92
2023-05-10T01:59:32.910Z,94.11
2023-05-10T02:00:36.299Z,94.01
2023-05-10T02:01:39.937Z,94.39
2023-05-10T02:02:49.741Z,94.32
2023-05-10T02:03:52.553Z,94.72
2023-05-10T02:04:56.612Z,94.87
2023-05-10T02:05:59.574Z,95.03
2023-05-10T02:07:01.684Z,94.95
2023-05-10T02:08:07.044Z,94.64
2023-05-10T02:09:11.853Z,94.34
2023-05-10T02:10:15.654Z,94.34
2023-05-10T02:11:19.579Z,94.09
2023-05-10T02:12:23.611Z,94.68
2023-05-10T02:13:28.130Z,95.24
2023-05-10T02:14:33.319Z,95.19
2023-05-10T02:15:36.410Z,94.89
2023-05-10T02:16:40.500Z,94.38
2023-05-10T02:17:43.515Z,95.16
2023-05-10T02:18:46.942Z,95.04
2023-05-10T02:19:49.497Z,95.04
2023-05-10T02:20:53.540Z,95.00
2023-05-10T02:21:56.996Z,95.31
2023-05-10T02:22:59.215Z,94.59
2023-05-10T02:24:03.740Z,95.10
2023-05-10T02:25:07.561Z,94.39
2023-05-10T02:26:10.170Z,94.52
2023-05-10T02:27:13.622Z,94.47
2023-05-10T02:28:16.636Z,94.40
2023-05-10T02:29:19.601Z,94.53
2023-05-10T02:30:22.796Z,94.47
2023-05-10T02:31:24.775Z,94.40
2023-05-10T02:32:28.702Z,94.36
2023-05-10T02:33:32.758Z,94.69
2023-05-10T02:34:34.752Z,94.37
2023-05-10T02:35:37.077Z,94.60
2023-05-10T02:36:41.220Z,94.27
2023-05-10T02:37:44.844Z,93.60
2023-05-10T02:38:48.334Z,94.40
2023-05-10T02:39:56.186Z,94.26
2023-05-10T02:40:59.113Z,94.14
2023-05-10T02:42:03.427Z,94.36
2023-05-10T02:43:07.634Z,94.11
2023-05-10T02:44:10.781Z,93.29
2023-05-10T02:45:16.089Z,93.27
2023-05-10T02:46:17.994Z,93.55
2023-05-10T02:47:20.218Z,92.69
2023-05-10T02:48:22.050Z,93.07
2023-05-10T02:49:23.897Z,92.62
2023-05-10T02:50:29.162Z,92.37
2023-05-10T02:51:33.371Z,92.99
2023-05-10T02:52:45.566Z,93.21
2023-05-10T02:53:48.211Z,93.29
2023-05-10T02:54:53.250Z,93.59
2023-05-10T02:56:00.652Z,93.14
2023-05-10T02:57:05.598Z,92.89
2023-05-10T02:58:07.451Z,92.71
2023-05-10T02:59:09.564Z,92.75
2023-05-10T03:00:11.787Z,93.36
2023-05-10T03:01:13.567Z,92.94
2023-05-10T03:02:15.445Z,93.11
2023-05-10T03:03:17.213Z,92.96
2023-05-10T03:04:19.239Z,93.36
2023-05-10T03:05:21.593Z,92.73
2023-05-10T03:06:23.379Z,93.52
2023-05-10T03:07:25.245Z,92.89
2023-05-10T03:08:29.678Z,92.87
2023-05-10T03:09:32.548Z,93.07
2023-05-10T03:10:39.237Z,93.55
2023-05-10T03:11:48.476Z,93.06
2023-05-10T03:13:21.942Z,93.21
2023-05-10T03:14:35.719Z,93.94
2023-05-10T03:15:59.511Z,93.56
2023-05-10T03:17:23.669Z,94.22
2023-05-10T03:18:46.013Z,94.01
2023-05-10T03:19:58.969Z,93.78
2023-05-10T03:21:06.305Z,94.03
2023-05-10T03:22:11.998Z,94.17
2023-05-10T03:23:15.386Z,94.24
2023-05-10T03:24:19.983Z,94.21
2023-05-10T03:25:23.083Z,93.91
2023-05-10T03:26:29.512Z,94.62
2023-05-10T03:27:33.367Z,94.48
2023-05-10T03:28:36.485Z,94.57
2023-05-10T03:29:40.245Z,94.35
2023-05-10T03:30:42.933Z,94.75
2023-05-10T03:31:44.965Z,94.98
2023-05-10T03:32:47.053Z,95.20
2023-05-10T03:33:53.326Z,95.05
2023-05-10T03:34:55.055Z,95.01
2023-05-10T03:35:56.802Z,95.20
2023-05-10T03:36:58.669Z,95.23
2023-05-10T03:38:00.364Z,95.29
2023-05-10T03:39:02.082Z,94.97
2023-05-10T03:40:04.566Z,94.76
2023-05-10T03:41:06.279Z,94.98
2023-05-10T03:42:08.029Z,95.16
2023-05-10T03:43:09.840Z,95.36
2023-05-10T03:44:11.789Z,95.43
2023-05-10T03:45:13.695Z,95.32
2023-05-10T03:46:15.458Z,94.75
2023-05-10T03:47:17.196Z,94.28
2023-05-10T03:48:18.905Z,94.73
2023-05-10T03:49:20.625Z,94.84
2023-05-10T03:50:22.500Z,94.73
2023-05-10T03:51:25.239Z,94.35
2023-05-10T03:52:27.155Z,94.70
2023-05-10T03:53:28.866Z,94.20
2023-05-10T03:54:30.592Z,95.03
2023-05-10T03:55:35.588Z,95.24
2023-05-10T03:56:37.408Z,94.85
2023-05-10T03:57:39.171Z,94.17
2023-05-10T03:58:40.887Z,94.30
2023-05-10T03:59:42.570Z,94.63
2023-05-10T04:00:47.079Z,94.69
2023-05-10T04:01:48.898Z,95.02
2023-05-10T04:02:50.830Z,95.37
2023-05-10T04:03:52.772Z,94.97
2023-05-10T04:04:54.537Z,95.27
2023-05-10T04:06:03.536Z,94.64
2023-05-10T04:07:05.433Z,94.13
2023-05-10T04:08:07.583Z,94.66
2023-05-10T04:09:09.494Z,94.16
2023-05-10T04:10:12.226Z,93.92
2023-05-10T04:11:14.813Z,93.62
2023-05-10T04:12:16.537Z,93.95
2023-05-10T04:13:18.266Z,93.80
2023-05-10T04:14:20.069Z,94.02
2023-05-10T04:15:21.933Z,93.48
2023-05-10T04:16:23.750Z,94.06
2023-05-10T04:17:25.506Z,93.83
2023-05-10T04:18:27.273Z,93.65
2023-05-10T04:19:32.394Z,93.79
2023-05-10T04:20:34.551Z,93.57
2023-05-10T04:21:36.234Z,94.45
2023-05-10T04:22:38.020Z,94.24
2023-05-10T04:23:39.848Z,93.56
2023-05-10T04:24:41.555Z,94.26
2023-05-10T04:25:43.842Z,93.80
2023-05-10T04:26:45.684Z,93.92
2023-05-10T04:27:47.461Z,94.42
2023-05-10T04:28:49.243Z,94.30
2023-05-10T04:29:51.685Z,93.46
2023-05-10T04:30:53.436Z,93.56
2023-05-10T04:31:56.361Z,93.37
2023-05-10T04:32:58.087Z,93.75
2023-05-10T04:33:59.825Z,93.78
2023-05-10T04:35:03.967Z,93.91
2023-05-10T04:36:06.257Z,92.90
2023-05-10T04:37:08.717Z,92.97
2023-05-10T04:38:10.611Z,93.04
2023-05-10T04:39:12.310Z,92.42
2023-05-10T04:40:14.147Z,92.60
2023-05-10T04:41:16.142Z,92.53
2023-05-10T04:42:17.987Z,92.01
2023-05-10T04:43:20.243Z,92.38
2023-05-10T04:44:21.976Z,92.37
2023-05-10T04:45:23.803Z,92.75
2023-05-10T04:46:26.049Z,93.05
2023-05-10T04:47:27.844Z,92.83
2023-05-10T04:48:29.716Z,92.67
2023-05-10T04:49:31.433Z,92.79
2023-05-10T04:50:33.130Z,92.27
2023-05-10T04:51:35.307Z,91.72
2023-05-10T04:52:37.595Z,92.03
2023-05-10T04:53:39.453Z,91.99
2023-05-10T04:54:41.193Z,91.53
2023-05-10T04:55:43.228Z,91.07
2023-05-10T04:56:44.946Z,91.58
2023-05-10T04:57:46.742Z,91.01
2023-05-10T04:58:48.481Z,91.29
2023-05-10T04:59:50.647Z,90.51
2023-05-10T05:00:52.427Z,91.19
2023-05-10T05:01:54.192Z,91.02
2023-05-10T05:02:56.019Z,90.69
2023-05-10T05:03:57.998Z,90.24
2023-05-10T05:04:59.886Z,89.72
2023-05-10T05:06:01.587Z,90.53
2023-05-10T05:07:03.366Z,89.93
2023-05-10T05:08:05.168Z,89.62
2023-05-10T05:09:06.902Z,90.12
2023-05-10T05:10:09.971Z,89.79
2023-05-10T05:11:11.657Z,89.14
2023-05-10T05:12:15.370Z,89.49
2023-05-10T05:13:17.200Z,90.18
2023-05-10T05:14:19.007Z,89.88
2023-05-10T05:15:20.844Z,89.57
2023-05-10T05:16:22.696Z,89.95
2023-05-10T05:17:24.475Z,90.62
2023-05-10T05:18:26.210Z,90.09
2023-05-10T05:19:28.503Z,89.99
2023-05-10T05:20:34.064Z,89.78
2023-05-10T05:21:35.807Z,89.81
2023-05-10T05:22:38.321Z,89.59
2023-05-10T05:23:40.036Z,90.11
2023-05-10T05:24:41.780Z,89.90
2023-05-10T05:25:43.846Z,89.33
2023-05-10T05:26:45.550Z,88.84
2023-05-10T05:27:47.270Z,89.33
2023-05-10T05:28:50.255Z,88.29
2023-05-10T05:29:53.958Z,88.35
2023-05-10T05:30:55.654Z,87.84
2023-05-10T05:31:57.382Z,89.55
2023-05-10T05:32:59.254Z,87.65
2023-05-10T05:34:01.002Z,88.21
2023-05-10T05:35:02.721Z,87.72
2023-05-10T05:36:06.064Z,87.89
2023-05-10T05:37:07.851Z,87.67
2023-05-10T05:38:09.960Z,87.86
2023-05-10T05:39:12.242Z,87.23
2023-05-10T05:40:15.151Z,86.31
2023-05-10T05:41:16.867Z,86.11
2023-05-10T05:42:19.905Z,85.79
2023-05-10T05:43:21.676Z,86.22
2023-05-10T05:44:23.359Z,86.78
2023-05-10T05:45:25.066Z,86.26
2023-05-10T05:46:26.862Z,86.50
2023-05-10T05:47:28.802Z,87.24
2023-05-10T05:48:33.591Z,86.06
2023-05-10T05:49:35.361Z,86.20
2023-05-10T05:50:37.122Z,85.93
2023-05-10T05:51:38.896Z,85.10
2023-05-10T05:52:40.742Z,84.55
2023-05-10T05:53:42.439Z,84.82
2023-05-10T05:54:44.420Z,84.65
2023-05-10T05:55:56.926Z,85.41
2023-05-10T05:57:01.197Z,85.17
2023-05-10T05:58:03.614Z,84.96
2023-05-10T05:59:05.366Z,85.61
2023-05-10T06:00:07.776Z,85.26
2023-05-10T06:01:09.735Z,84.57
2023-05-10T06:02:11.933Z,84.48
2023-05-10T06:03:13.743Z,85.14
2023-05-10T06:04:15.842Z,83.70
2023-05-10T06:05:18.024Z,84.08
2023-05-10T06:06:19.877Z,84.17
2023-05-10T06:07:22.129Z,84.08
2023-05-10T06:08:23.874Z,83.99
2023-05-10T06:09:25.718Z,83.20
2023-05-10T06:10:27.691Z,84.19
2023-05-10T06:11:29.529Z,84.07
2023-05-10T06:12:32.557Z,84.41
2023-05-10T06:13:36.376Z,83.82
2023-05-10T06:14:38.120Z,83.74
2023-05-10T06:15:39.940Z,84.02
2023-05-10T06:16:41.785Z,84.18
2023-05-10T06:17:44.523Z,84.31
2023-05-10T06:18:46.240Z,84.05
2023-05-10T06:19:48.092Z,83.57
2023-05-10T06:20:51.260Z,82.06
2023-05-10T06:21:54.007Z,81.78
2023-05-10T06:22:55.909Z,80.78
2023-05-10T06:23:57.758Z,82.14
2023-05-10T06:24:59.585Z,81.53
2023-05-10T06:26:01.457Z,81.19
2023-05-10T06:27:03.289Z,81.50
2023-05-10T06:28:04.977Z,81.69
2023-05-10T06:29:07.066Z,81.78
2023-05-10T06:30:13.444Z,81.87
2023-05-10T06:31:15.552Z,82.28
2023-05-10T06:32:17.353Z,82.70
2023-05-10T06:33:19.050Z,82.46
2023-05-10T06:34:20.819Z,81.38
2023-05-10T06:35:22.608Z,81.56
2023-05-10T06:36:25.803Z,81.66
2023-05-10T06:37:27.495Z,81.44
2023-05-10T06:38:29.172Z,80.17
2023-05-10T06:39:30.931Z,79.77
2023-05-10T06:40:32.757Z,80.03
2023-05-10T06:41:34.498Z,79.59
2023-05-10T06:42:36.252Z,79.98
2023-05-10T06:43:41.028Z,79.25
2023-05-10T06:44:42.955Z,79.71
2023-05-10T06:45:45.048Z,79.73
2023-05-10T06:46:46.797Z,80.64
2023-05-10T06:47:48.612Z,80.45
2023-05-10T06:48:50.527Z,81.31
2023-05-10T06:49:52.334Z,80.60
2023-05-10T06:50:54.051Z,79.38
2023-05-10T06:51:57.206Z,79.22
2023-05-10T06:52:59.141Z,78.94
2023-05-10T06:54:01.245Z,79.83
2023-05-10T06:55:04.698Z,79.16
2023-05-10T06:56:06.645Z,79.61
2023-05-10T06:57:16.159Z,79.77
2023-05-10T06:58:25.809Z,78.25
2023-05-10T06:59:27.623Z,78.59
2023-05-10T07:00:29.446Z,78.94
2023-05-10T07:01:31.261Z,78.42
2023-05-10T07:02:33.144Z,78.15
2023-05-10T07:03:34.908Z,78.55
2023-05-10T07:04:36.754Z,77.67
2023-05-10T07:05:38.599Z,77.49
2023-05-10T07:06:40.482Z,77.13
2023-05-10T07:07:43.511Z,78.06
2023-05-10T07:08:45.243Z,76.47
2023-05-10T07:09:47.140Z,77.53
2023-05-10T07:10:48.860Z,77.62
2023-05-10T07:11:51.584Z,78.61
2023-05-10T07:12:53.565Z,78.10
2023-05-10T07:13:55.396Z,78.15
2023-05-10T07:14:57.087Z,78.28
2023-05-10T07:15:59.966Z,77.29
2023-05-10T07:17:01.830Z,76.22
2023-05-10T07:18:05.650Z,76.95
2023-05-10T07:19:07.554Z,76.79
2023-05-10T07:20:09.794Z,76.31
2023-05-10T07:21:14.162Z,76.92
2023-05-10T07:22:17.704Z,76.87
2023-05-10T07:23:19.913Z,76.92
2023-05-10T07:24:21.841Z,76.49
2023-05-10T07:25:23.575Z,76.21
2023-05-10T07:26:25.278Z,76.39
2023-05-10T07:27:27.117Z,75.95
2023-05-10T07:28:29.076Z,75.52
2023-05-10T07:29:30.933Z,74.76
2023-05-10T07:30:32.635Z,75.38
2023-05-10T07:31:34.542Z,75.58
2023-05-10T07:32:36.487Z,74.92
2023-05-10T07:33:38.381Z,73.29
2023-05-10T07:34:40.126Z,73.13
2023-05-10T07:35:41.987Z,73.47
2023-05-10T07:36:43.743Z,74.51
2023-05-10T07:37:45.706Z,74.76
2023-05-10T07:38:47.536Z,73.87
2023-05-10T07:39:49.212Z,74.40
2023-05-10T07:40:50.906Z,74.63
2023-05-10T07:41:52.597Z,74.63
2023-05-10T07:42:54.376Z,74.72
2023-05-10T07:43:56.197Z,74.83
2023-05-10T07:44:57.893Z,74.89
2023-05-10T07:46:00.852Z,75.09
2023-05-10T07:47:02.611Z,75.57
2023-05-10T07:48:04.411Z,75.79
2023-05-10T07:49:06.275Z,76.16
2023-05-10T07:50:08.853Z,75.58
2023-05-10T07:51:10.773Z,75.67
2023-05-10T07:52:12.952Z,76.74
2023-05-10T07:53:14.645Z,75.66
2023-05-10T07:54:16.356Z,76.32
2023-05-10T07:55:20.158Z,75.60
2023-05-10T07:56:28.431Z,76.48
2023-05-10T07:57:30.150Z,76.30
2023-05-10T07:58:31.835Z,75.83
2023-05-10T07:59:34.162Z,76.03
2023-05-10T08:00:36.040Z,74.59
2023-05-10T08:01:37.818Z,74.44
2023-05-10T08:02:39.756Z,74.94
2023-05-10T08:03:41.642Z,72.92
2023-05-10T08:04:43.510Z,73.29
2023-05-10T08:05:45.356Z,72.30
2023-05-10T08:06:47.039Z,73.65
2023-05-10T08:07:48.774Z,73.54
2023-05-10T08:08:51.698Z,73.20
2023-05-10T08:09:53.489Z,73.81
2023-05-10T08:10:55.207Z,72.43
2023-05-10T08:11:57.475Z,73.76
2023-05-10T08:12:59.667Z,75.15
2023-05-10T08:14:01.683Z,72.57
2023-05-10T08:15:04.381Z,72.73
2023-05-10T08:16:06.546Z,72.40
2023-05-10T08:17:08.323Z,71.74
2023-05-10T08:18:10.104Z,71.53
2023-05-10T08:19:11.910Z,70.90
2023-05-10T08:20:14.047Z,70.05
2023-05-10T08:21:16.757Z,70.64
2023-05-10T08:22:18.508Z,69.00
2023-05-10T08:23:20.233Z,68.76
2023-05-10T08:24:22.080Z,69.53
2023-05-10T08:25:23.801Z,69.76
2023-05-10T08:26:25.562Z,69.48
2023-05-10T08:27:27.288Z,70.29
2023-05-10T08:28:29.056Z,70.90
2023-05-10T08:29:38.634Z,71.14
2023-05-10T08:30:48.230Z,68.70
2023-05-10T08:31:50.056Z,70.01
2023-05-10T08:32:51.882Z,70.30
2023-05-10T08:33:53.816Z,69.02
2023-05-10T08:34:57.087Z,69.32
2023-05-10T08:35:58.832Z,68.98
2023-05-10T08:37:00.627Z,68.29
2023-05-10T08:38:02.552Z,67.33
2023-05-10T08:39:04.468Z,67.35
2023-05-10T08:40:06.880Z,68.82
2023-05-10T08:41:08.994Z,69.84
2023-05-10T08:42:11.173Z,69.91
2023-05-10T08:43:16.311Z,67.12
2023-05-10T08:44:19.441Z,66.54
2023-05-10T08:45:23.279Z,66.22
2023-05-10T08:46:25.109Z,66.56
2023-05-10T08:47:27.495Z,67.03
2023-05-10T08:48:30.922Z,66.71
2023-05-10T08:49:33.996Z,66.47
2023-05-10T08:50:38.235Z,66.20
2023-05-10T08:51:45.128Z,67.74
2023-05-10T08:52:50.662Z,67.69
2023-05-10T08:53:52.460Z,68.50
2023-05-10T08:54:54.318Z,68.03
2023-05-10T08:55:56.711Z,66.80
2023-05-10T08:56:58.612Z,66.92
2023-05-10T08:58:01.228Z,67.09
2023-05-10T08:59:03.016Z,66.86
2023-05-10T09:00:05.337Z,67.30
2023-05-10T09:01:08.348Z,65.84
2023-05-10T09:02:12.859Z,66.28
2023-05-10T09:03:15.144Z,65.39
2023-05-10T09:04:17.628Z,65.38
2023-05-10T09:05:19.869Z,65.83
2023-05-10T09:06:22.160Z,66.70
2023-05-10T09:07:23.950Z,67.48
2023-05-10T09:08:27.062Z,67.93
2023-05-10T09:09:29.330Z,66.94
2023-05-10T09:10:32.140Z,66.67
2023-05-10T09:11:34.043Z,65.40
2023-05-10T09:12:36.598Z,65.04
2023-05-10T09:13:38.355Z,64.44
2023-05-10T09:14:40.659Z,64.15
2023-05-10T09:15:42.694Z,65.70
2023-05-10T09:16:44.554Z,63.25
2023-05-10T09:17:47.415Z,63.91
2023-05-10T09:18:50.612Z,63.37
2023-05-10T09:20:02.429Z,63.45
2023-05-10T09:21:04.361Z,62.96
2023-05-10T09:22:06.260Z,64.07
2023-05-10T09:23:08.552Z,64.99
2023-05-10T09:24:10.370Z,65.05
2023-05-10T09:25:14.307Z,65.44
2023-05-10T09:26:17.291Z,65.38
2023-05-10T09:27:27.668Z,65.26
2023-05-10T09:28:33.142Z,65.32
2023-05-10T09:29:44.433Z,64.96
2023-05-10T09:30:54.777Z,65.29
2023-05-10T09:31:56.581Z,63.52
2023-05-10T09:32:59.635Z,63.45
2023-05-10T09:34:01.470Z,62.01
2023-05-10T09:35:10.273Z,62.14
2023-05-10T09:36:12.271Z,64.70
2023-05-10T09:37:14.580Z,63.96
2023-05-10T09:38:16.477Z,63.23
2023-05-10T09:39:19.037Z,63.68
2023-05-10T09:40:26.358Z,65.48
2023-05-10T09:41:29.223Z,64.68
2023-05-10T09:42:31.033Z,64.66
2023-05-10T09:43:39.058Z,62.47
2023-05-10T09:44:42.046Z,62.13
2023-05-10T09:45:43.812Z,63.05
2023-05-10T09:46:50.231Z,60.83
2023-05-10T09:47:52.501Z,60.99
2023-05-10T09:48:54.302Z,61.90
2023-05-10T09:50:04.113Z,63.16
2023-05-10T09:51:06.042Z,63.05
2023-05-10T09:52:09.078Z,60.86
2023-05-10T09:53:15.679Z,60.87
2023-05-10T09:54:17.995Z,60.83
2023-05-10T09:55:24.407Z,61.86
2023-05-10T09:56:37.008Z,62.28
2023-05-10T09:57:38.981Z,61.81
2023-05-10T09:58:41.572Z,60.87
2023-05-10T09:59:46.378Z,61.82
2023-05-10T10:00:49.051Z,63.16
2023-05-10T10:01:56.844Z,60.94
2023-05-10T10:03:01.117Z,61.83
2023-05-10T10:04:12.125Z,62.42
2023-05-10T10:05:14.821Z,60.06
2023-05-10T10:06:29.447Z,61.20
2023-05-10T10:07:33.099Z,61.27
2023-05-10T10:08:35.481Z,59.99
2023-05-10T10:09:37.242Z,59.43
2023-05-10T10:10:41.369Z,60.48
2023-05-10T10:11:43.321Z,60.89
2023-05-10T10:12:45.658Z,58.26
2023-05-10T10:13:47.469Z,59.60
2023-05-10T10:14:50.645Z,59.73
2023-05-10T10:15:55.199Z,60.87
2023-05-10T10:17:07.655Z,58.57
2023-05-10T10:18:15.768Z,57.85
2023-05-10T10:19:19.476Z,58.67
2023-05-10T10:20:23.474Z,57.42
2023-05-10T10:21:25.488Z,57.47
2023-05-10T10:22:27.348Z,56.94
2023-05-10T10:23:29.084Z,56.97
2023-05-10T10:24:30.899Z,55.86
2023-05-10T10:25:32.986Z,58.39
2023-05-10T10:26:37.436Z,53.83
2023-05-10T10:27:50.296Z,57.34
2023-05-10T10:29:34.027Z,58.11
2023-05-10T10:30:49.625Z,55.33
2023-05-10T10:31:54.808Z,58.58
2023-05-10T10:33:30.651Z,59.07
2023-05-10T10:34:33.005Z,57.68
2023-05-10T10:35:35.614Z,57.80
2023-05-10T10:36:48.256Z,59.49
2023-05-10T10:37:52.223Z,58.49
2023-05-10T10:39:01.918Z,58.13
2023-05-10T10:40:27.551Z,56.58
2023-05-10T10:41:50.933Z,56.72
2023-05-10T10:42:53.157Z,58.27
2023-05-10T10:44:25.910Z,57.97
2023-05-10T10:45:27.876Z,56.64
2023-05-10T10:46:29.632Z,56.62
2023-05-10T10:47:34.335Z,57.35
2023-05-10T10:48:37.055Z,59.37
2023-05-10T10:49:44.648Z,57.96
2023-05-10T10:50:49.626Z,58.36
2023-05-10T10:52:23.940Z,59.60
2023-05-10T10:53:29.503Z,58.57
2023-05-10T10:54:33.751Z,57.58
2023-05-10T10:55:35.588Z,57.89
2023-05-10T10:56:37.405Z,57.84
2023-05-10T10:57:42.507Z,56.06
2023-05-10T10:58:54.849Z,56.31
2023-05-10T11:00:18.650Z,56.69
2023-05-10T11:01:20.986Z,57.00
2023-05-10T11:02:54.954Z,57.24
2023-05-10T11:04:05.648Z,57.16
2023-05-10T11:05:28.957Z,56.71
2023-05-10T11:06:34.713Z,57.28
2023-05-10T11:07:36.558Z,56.62
2023-05-10T11:08:45.130Z,56.25
2023-05-10T11:09:48.561Z,56.02
2023-05-10T11:10:53.299Z,56.64
2023-05-10T11:11:59.537Z,54.83
2023-05-10T11:13:06.851Z,53.86
2023-05-10T11:14:09.053Z,55.21
2023-05-10T11:15:10.964Z,55.14
2023-05-10T11:16:24.294Z,53.13
2023-05-10T11:17:33.906Z,54.09
2023-05-10T11:18:38.052Z,54.46
2023-05-10T11:20:10.570Z,53.70
2023-05-10T11:21:12.593Z,52.70
2023-05-10T11:22:14.960Z,54.74
2023-05-10T11:23:18.786Z,54.68
2023-05-10T11:24:24.285Z,56.31
2023-05-10T11:25:29.344Z,54.88
2023-05-10T11:26:36.457Z,55.31
2023-05-10T11:27:39.269Z,53.32
2023-05-10T11:28:49.994Z,54.33
2023-05-10T11:29:54.799Z,55.23
2023-05-10T11:30:57.719Z,54.32
2023-05-10T11:32:00.742Z,53.76
2023-05-10T11:33:02.607Z,55.48
2023-05-10T11:34:04.346Z,53.97
2023-05-10T11:35:13.017Z,53.89
2023-05-10T11:36:20.251Z,53.82
2023-05-10T11:37:21.938Z,55.06
2023-05-10T11:38:23.640Z,55.26
2023-05-10T11:39:29.787Z,55.33
2023-05-10T11:40:31.598Z,53.55
2023-05-10T11:41:33.348Z,54.87
2023-05-10T11:42:35.106Z,55.32
2023-05-10T11:43:39.400Z,56.09
2023-05-10T11:44:42.141Z,56.26
2023-05-10T11:45:43.964Z,53.77
2023-05-10T11:46:45.835Z,56.10
2023-05-10T11:47:50.331Z,55.71
2023-05-10T11:48:54.102Z,55.57
2023-05-10T11:49:55.945Z,55.77
2023-05-10T11:50:59.046Z,56.03
2023-05-10T11:52:08.337Z,55.57
2023-05-10T11:53:10.101Z,55.10
2023-05-10T11:54:12.705Z,53.66
2023-05-10T11:55:14.585Z,52.93
2023-05-10T11:56:16.502Z,53.49
2023-05-10T11:57:20.182Z,53.35
2023-05-10T11:58:23.676Z,53.64
2023-05-10T11:59:26.405Z,51.37
2023-05-10T12:00:28.600Z,53.68
2023-05-10T12:01:30.421Z,53.55
2023-05-10T12:02:32.411Z,53.82
2023-05-10T12:03:35.306Z,54.77
2023-05-10T12:04:38.481Z,55.17
2023-05-10T12:05:43.166Z,56.69
2023-05-10T12:06:46.106Z,55.59
2023-05-10T12:07:47.821Z,54.84
2023-05-10T12:08:54.804Z,54.28
2023-05-10T12:10:11.329Z,52.91
2023-05-10T12:11:14.737Z,55.11
2023-05-10T12:12:19.527Z,51.93
2023-05-10T12:13:22.220Z,52.74
2023-05-10T12:14:25.451Z,55.49
2023-05-10T12:15:28.976Z,54.00
2023-05-10T12:16:31.279Z,54.52
2023-05-10T12:17:33.424Z,52.00
2023-05-10T12:18:35.183Z,53.08
2023-05-10T12:19:40.407Z,53.21
2023-05-10T12:20:42.452Z,53.19
2023-05-10T12:21:45.540Z,52.92
2023-05-10T12:22:50.711Z,52.22
2023-05-10T12:23:54.497Z,54.03
2023-05-10T12:24:56.280Z,53.16
2023-05-10T12:26:05.036Z,52.60
2023-05-10T12:28:31.507Z,51.95
2023-05-10T12:29:33.184Z,53.52
2023-05-10T12:30:36.611Z,52.05
2023-05-10T12:32:07.500Z,52.55
2023-05-10T12:33:10.763Z,51.29
2023-05-10T12:34:12.453Z,53.10
2023-05-10T12:35:14.095Z,51.46
2023-05-10T12:36:17.067Z,52.03
2023-05-10T12:37:18.639Z,52.83
2023-05-10T12:38:44.964Z,53.99
2023-05-10T12:39:47.204Z,51.97
2023-05-10T12:40:48.836Z,50.56
2023-05-10T12:41:50.452Z,52.24
2023-05-10T12:42:53.135Z,53.43
2023-05-10T12:43:54.793Z,52.66
2023-05-10T12:44:58.198Z,52.48
2023-05-10T12:46:05.112Z,51.18
2023-05-10T12:47:07.014Z,50.30
2023-05-10T12:48:08.793Z,48.97
2023-05-10T12:49:10.653Z,49.02
2023-05-10T12:50:12.408Z,50.41
2023-05-10T12:51:16.722Z,50.83
2023-05-10T12:52:18.439Z,51.30
2023-05-10T12:53:20.057Z,49.48
2023-05-10T12:54:21.689Z,49.84
2023-05-10T12:55:23.400Z,48.76
2023-05-10T12:56:25.109Z,50.53
2023-05-10T12:57:27.274Z,50.82
2023-05-10T12:58:35.623Z,50.51
2023-05-10T12:59:38.304Z,50.28
2023-05-10T13:00:40.157Z,49.40
2023-05-10T13:01:41.817Z,49.72
2023-05-10T13:02:43.534Z,49.60
2023-05-10T13:03:45.253Z,51.38
2023-05-10T13:04:48.910Z,52.48
2023-05-10T13:05:52.522Z,51.35
2023-05-10T13:06:54.212Z,51.58
2023-05-10T13:07:55.973Z,53.07
2023-05-10T13:08:58.627Z,52.32
2023-05-10T13:10:00.434Z,52.87
2023-05-10T13:11:02.697Z,52.57
2023-05-10T13:12:04.686Z,52.95
2023-05-10T13:13:06.388Z,52.29
2023-05-10T13:14:08.068Z,52.26
2023-05-10T13:15:10.104Z,52.24
2023-05-10T13:16:11.721Z,51.16
2023-05-10T13:17:13.457Z,52.15
2023-05-10T13:18:15.188Z,52.58
2023-05-10T13:19:17.622Z,52.55
2023-05-10T13:20:19.537Z,51.36
2023-05-10T13:21:21.230Z,52.70
2023-05-10T13:22:32.395Z,51.88
2023-05-10T13:23:41.137Z,53.78
2023-05-10T13:24:42.758Z,51.58
2023-05-10T13:25:44.461Z,51.51
2023-05-10T13:26:46.455Z,53.36
2023-05-10T13:27:48.044Z,51.31
2023-05-10T13:28:50.643Z,52.14
2023-05-10T13:29:52.265Z,53.27
2023-05-10T13:30:53.970Z,52.60
2023-05-10T13:31:55.749Z,53.59
2023-05-10T13:32:57.465Z,52.69
2023-05-10T13:33:59.110Z,51.17
2023-05-10T13:35:00.725Z,51.74
2023-05-10T13:36:02.315Z,51.57
2023-05-10T13:37:04.078Z,51.79
2023-05-10T13:38:09.048Z,52.33
2023-05-10T13:39:10.779Z,52.98
2023-05-10T13:40:12.617Z,52.76
2023-05-10T13:41:14.424Z,51.86
2023-05-10T13:42:16.508Z,53.08
2023-05-10T13:43:18.162Z,51.45
2023-05-10T13:44:21.617Z,52.25
2023-05-10T13:45:23.187Z,51.83
2023-05-10T13:46:24.902Z,51.96
2023-05-10T13:47:26.597Z,52.01
2023-05-10T13:48:28.301Z,51.31